Time;durP1;ratioP1;P1;durP2;ratioP2;P2;SDS_P1;SDS_P2;PMS_P1;PMS_P2;Temp;Humidity;BMP_temperature;BMP_pressure;BME280_temperature;BME280_humidity;BME280_pressure;Samples;Min_cycle;Max_cycle;Signal;HPM_P1;HPM_P2
2022/05/03 00:00:00;;;;;;;2.17;0.73;;;20.50;41.40;;;;;;4934664;28;20403;-60
2022/05/03 00:02:39;;;;;;;0.60;0.60;;;20.50;41.30;;;;;;4944066;29;20082;-60
2022/05/03 00:05:13;;;;;;;0.75;0.75;;;20.50;41.40;;;;;;4946095;29;20046;-60
2022/05/03 00:08:07;;;;;;;1.65;0.70;;;20.40;41.30;;;;;;4944569;29;21018;-61
2022/05/03 00:10:50;;;;;;;0.73;0.73;;;20.50;41.40;;;;;;4908956;29;20052;-60
2022/05/03 00:13:19;;;;;;;1.15;0.60;;;20.40;41.30;;;;;;4943912;28;20077;-60
2022/05/03 00:15:47;;;;;;;1.80;0.60;;;20.40;41.30;;;;;;4944508;29;20416;-61
2022/05/03 00:18:13;;;;;;;1.02;0.70;;;20.50;41.30;;;;;;4945900;28;20039;-60
2022/05/03 00:20:39;;;;;;;1.05;0.60;;;20.40;41.30;;;;;;4943862;28;20519;-61
2022/05/03 00:23:05;;;;;;;1.13;0.63;;;20.40;41.30;;;;;;4945146;29;20031;-61
2022/05/03 00:25:32;;;;;;;0.80;0.80;;;20.40;41.20;;;;;;4944232;28;20443;-60
2022/05/03 00:27:59;;;;;;;0.93;0.88;;;20.40;41.30;;;;;;4943522;28;20043;-61
2022/05/03 00:30:25;;;;;;;0.77;0.77;;;20.40;41.20;;;;;;4944611;29;20042;-61
2022/05/03 00:32:52;;;;;;;0.73;0.60;;;20.40;41.20;;;;;;4943044;29;20443;-61
2022/05/03 00:35:21;;;;;;;0.93;0.68;;;20.40;41.20;;;;;;4957602;28;20054;-61
2022/05/03 00:37:46;;;;;;;0.68;0.60;;;20.40;42.00;;;;;;4945420;28;20169;-61
2022/05/03 00:40:14;;;;;;;0.80;0.80;;;20.40;41.20;;;;;;4943117;29;20051;-60
2022/05/03 00:43:11;;;;;;;0.80;0.80;;;20.40;41.20;;;;;;4940189;29;20126;-60
2022/05/03 00:45:36;;;;;;;1.00;0.80;;;20.40;41.20;;;;;;4943563;29;20039;-60
2022/05/03 00:48:07;;;;;;;0.68;0.68;;;20.40;41.20;;;;;;4958411;28;21003;-61
2022/05/03 00:50:44;;;;;;;0.77;0.70;;;20.40;41.20;;;;;;4943402;28;20039;-60
2022/05/03 00:53:16;;;;;;;0.80;0.80;;;20.40;41.20;;;;;;4943299;29;20134;-60
2022/05/03 00:56:03;;;;;;;0.60;0.60;;;20.40;41.20;;;;;;4943378;28;20529;-60
2022/05/03 00:58:48;;;;;;;1.40;0.73;;;20.40;41.20;;;;;;4943855;29;20040;-61
2022/05/03 01:01:31;;;;;;;0.82;0.70;;;20.30;41.10;;;;;;4944631;29;20043;-60
2022/05/03 01:04:20;;;;;;;1.15;0.70;;;20.40;41.10;;;;;;4944317;28;20051;-61
2022/05/03 01:06:52;;;;;;;0.80;0.77;;;20.40;41.10;;;;;;4943100;29;20483;-61
2022/05/03 01:09:43;;;;;;;1.35;0.68;;;20.30;41.10;;;;;;4944241;29;20389;-60
2022/05/03 01:12:40;;;;;;;1.03;0.97;;;20.30;41.00;;;;;;4944209;28;20138;-61
2022/05/03 01:15:19;;;;;;;0.98;0.70;;;20.30;41.00;;;;;;4945690;28;20761;-61
2022/05/03 01:17:48;;;;;;;0.80;0.70;;;20.30;41.10;;;;;;4945311;28;20043;-60
2022/05/03 01:20:26;;;;;;;0.95;0.90;;;20.30;41.00;;;;;;4944959;29;20190;-60
2022/05/03 01:23:17;;;;;;;4.82;1.23;;;20.30;41.00;;;;;;4943269;28;20090;-60
2022/05/03 01:26:09;;;;;;;0.77;0.77;;;20.30;41.00;;;;;;4946542;29;20054;-61
2022/05/03 01:28:47;;;;;;;0.73;0.73;;;20.30;41.00;;;;;;4947598;29;20062;-60
2022/05/03 01:31:14;;;;;;;0.73;0.73;;;20.30;41.00;;;;;;4946889;29;20047;-60
2022/05/03 01:33:45;;;;;;;1.02;0.98;;;20.30;41.00;;;;;;4948544;28;21091;-61
2022/05/03 01:36:15;;;;;;;0.95;0.80;;;20.30;41.00;;;;;;4946493;28;20677;-61
2022/05/03 01:39:08;;;;;;;0.95;0.80;;;20.30;41.00;;;;;;4944557;29;20086;-60
2022/05/03 01:41:51;;;;;;;0.70;0.70;;;20.30;41.00;;;;;;4947310;29;20148;-61
2022/05/03 01:44:39;;;;;;;1.30;0.80;;;20.30;40.90;;;;;;4946045;28;20055;-60
2022/05/03 01:47:23;;;;;;;1.10;0.85;;;20.30;40.90;;;;;;4945922;29;20110;-61
2022/05/03 01:50:20;;;;;;;1.20;0.73;;;20.30;40.90;;;;;;4947216;29;20043;-61
2022/05/03 01:53:16;;;;;;;1.52;0.80;;;20.30;40.90;;;;;;4946268;28;20542;-60
2022/05/03 01:56:19;;;;;;;1.40;1.02;;;20.30;40.90;;;;;;4946701;28;20035;-61
2022/05/03 01:59:24;;;;;;;1.05;0.98;;;20.30;40.80;;;;;;4945874;29;20102;-61
2022/05/03 02:02:00;;;;;;;0.75;0.75;;;20.20;40.80;;;;;;4941998;28;20035;-61
2022/05/03 02:04:35;;;;;;;0.85;0.80;;;20.20;40.90;;;;;;4943541;29;20386;-61
2022/05/03 02:07:06;;;;;;;0.88;0.80;;;20.20;40.80;;;;;;4944440;28;20050;-61
2022/05/03 02:10:05;;;;;;;0.90;0.70;;;20.20;40.80;;;;;;4947324;29;20041;-61
2022/05/03 02:12:31;;;;;;;0.98;0.90;;;20.20;40.80;;;;;;4946168;29;20487;-60
2022/05/03 02:15:11;;;;;;;1.02;0.93;;;20.20;40.80;;;;;;4949321;28;20148;-61
2022/05/03 02:17:46;;;;;;;2.28;1.13;;;20.20;40.80;;;;;;4945877;29;20198;-61
2022/05/03 02:20:33;;;;;;;0.90;0.90;;;20.20;40.80;;;;;;4938381;28;20115;-61
2022/05/03 02:23:13;;;;;;;0.73;0.70;;;20.20;40.70;;;;;;4945255;28;20043;-61
2022/05/03 02:26:00;;;;;;;1.07;0.97;;;20.20;40.70;;;;;;4946810;29;20047;-60
2022/05/03 02:28:33;;;;;;;0.80;0.80;;;20.20;40.70;;;;;;4957949;28;20043;-60
2022/05/03 02:31:04;;;;;;;0.77;0.77;;;20.20;40.70;;;;;;4946529;29;20047;-60
2022/05/03 02:33:35;;;;;;;1.33;0.90;;;20.20;40.60;;;;;;4944340;28;20063;-60
2022/05/03 02:36:03;;;;;;;1.30;1.05;;;20.20;40.70;;;;;;4946216;28;20047;-60
2022/05/03 02:39:06;;;;;;;1.63;0.90;;;20.20;40.60;;;;;;4957738;28;20035;-60
2022/05/03 02:41:45;;;;;;;1.00;0.82;;;20.20;40.60;;;;;;4946801;29;20440;-61
2022/05/03 02:44:12;;;;;;;1.00;0.90;;;20.20;40.60;;;;;;4945638;28;20131;-60
2022/05/03 02:47:04;;;;;;;0.85;0.85;;;20.10;40.50;;;;;;4946600;29;20043;-60
2022/05/03 02:49:41;;;;;;;0.82;0.82;;;20.20;40.50;;;;;;4945736;28;20061;-60
2022/05/03 02:52:40;;;;;;;1.98;1.00;;;20.20;40.60;;;;;;4945208;29;20113;-60
2022/05/03 02:55:38;;;;;;;1.50;1.10;;;20.10;40.40;;;;;;4945015;29;20087;-60
2022/05/03 02:58:05;;;;;;;1.17;1.00;;;20.20;40.50;;;;;;4944043;29;20062;-60
2022/05/03 03:03:52;;;;;;;1.08;0.80;;;20.10;40.50;;;;;;4946170;29;20081;-60
2022/05/03 03:06:24;;;;;;;0.90;0.90;;;20.10;40.40;;;;;;4945036;29;20121;-61
2022/05/03 03:08:54;;;;;;;1.20;1.02;;;20.10;40.50;;;;;;4944286;29;20447;-60
2022/05/03 03:11:37;;;;;;;0.90;0.90;;;20.10;40.40;;;;;;4945646;29;20043;-60
2022/05/03 03:14:09;;;;;;;1.20;1.10;;;20.10;40.40;;;;;;4945848;29;20043;-60
2022/05/03 03:16:43;;;;;;;0.95;0.93;;;20.10;40.40;;;;;;4946241;28;20054;-61
2022/05/03 03:19:38;;;;;;;0.90;0.90;;;20.10;40.40;;;;;;4945491;29;20047;-61
2022/05/03 03:22:10;;;;;;;1.02;0.93;;;20.10;40.30;;;;;;4925923;28;20093;-60
2022/05/03 03:24:38;;;;;;;1.85;0.95;;;20.10;40.40;;;;;;4943402;29;20039;-60
2022/05/03 03:27:05;;;;;;;1.02;0.93;;;20.10;40.30;;;;;;4945416;28;20520;-60
2022/05/03 03:29:32;;;;;;;0.95;0.90;;;20.10;40.30;;;;;;4959407;28;20074;-60
2022/05/03 03:32:00;;;;;;;0.85;0.80;;;20.10;40.30;;;;;;4946646;29;20101;-60
2022/05/03 03:34:27;;;;;;;1.05;0.98;;;20.10;40.40;;;;;;4944725;29;20083;-61
2022/05/03 03:37:01;;;;;;;1.05;0.98;;;20.10;40.30;;;;;;4946252;28;20138;-61
2022/05/03 03:39:30;;;;;;;0.80;0.80;;;20.10;40.30;;;;;;4943973;29;20050;-61
2022/05/03 03:42:01;;;;;;;1.50;0.80;;;20.10;40.30;;;;;;4944823;29;20043;-60
2022/05/03 03:44:27;;;;;;;1.08;1.00;;;20.10;40.30;;;;;;4945115;28;20765;-60
2022/05/03 03:46:53;;;;;;;1.30;1.20;;;20.10;40.20;;;;;;4943962;28;20038;-60
2022/05/03 03:49:19;;;;;;;1.10;0.95;;;20.10;40.20;;;;;;4945677;29;20057;-60
2022/05/03 03:51:45;;;;;;;0.80;0.80;;;20.00;40.20;;;;;;4945390;28;20039;-61
2022/05/03 03:54:11;;;;;;;1.00;1.00;;;20.00;40.10;;;;;;4944754;28;20039;-61
2022/05/03 03:56:38;;;;;;;1.20;1.10;;;20.00;40.10;;;;;;4938981;29;20051;-61
2022/05/03 03:59:04;;;;;;;1.10;1.00;;;20.10;40.20;;;;;;4944549;28;20043;-61
2022/05/03 04:01:31;;;;;;;1.13;1.05;;;20.00;40.10;;;;;;4940622;28;20031;-61
2022/05/03 04:03:58;;;;;;;1.20;0.98;;;20.10;40.10;;;;;;4942817;29;20050;-61
2022/05/03 04:06:24;;;;;;;1.20;1.10;;;20.00;40.10;;;;;;4943019;29;20055;-61
2022/05/03 04:08:49;;;;;;;1.15;0.98;;;20.00;40.10;;;;;;4942910;28;20053;-61
2022/05/03 04:11:18;;;;;;;1.27;0.90;;;20.00;40.10;;;;;;4944260;28;20051;-61
2022/05/03 04:13:44;;;;;;;1.80;1.00;;;20.00;40.00;;;;;;4945564;28;20046;-61
2022/05/03 04:16:10;;;;;;;1.08;0.93;;;20.00;40.00;;;;;;4944322;29;20043;-61
2022/05/03 04:18:45;;;;;;;1.02;0.95;;;20.00;40.00;;;;;;4944349;28;20039;-61
2022/05/03 04:21:16;;;;;;;1.05;0.95;;;20.00;40.00;;;;;;4935311;29;20472;-61
2022/05/03 04:23:41;;;;;;;1.52;1.42;;;20.00;40.00;;;;;;4942863;29;20046;-61
2022/05/03 04:26:09;;;;;;;1.42;1.10;;;20.00;40.00;;;;;;4944110;28;20054;-61
2022/05/03 04:28:35;;;;;;;1.20;1.10;;;20.00;40.00;;;;;;4942465;28;20042;-61
2022/05/03 04:31:00;;;;;;;1.10;1.00;;;20.00;40.00;;;;;;4944354;28;20103;-61
2022/05/03 04:33:26;;;;;;;1.92;0.98;;;20.00;40.00;;;;;;4945416;28;20403;-61
2022/05/03 04:35:51;;;;;;;1.05;1.00;;;20.00;40.00;;;;;;4943944;28;20601;-61
2022/05/03 04:38:17;;;;;;;1.40;1.30;;;20.00;40.00;;;;;;4943586;28;21008;-61
2022/05/03 04:40:43;;;;;;;1.10;1.10;;;20.00;40.00;;;;;;4943621;28;20042;-61
2022/05/03 04:43:09;;;;;;;1.45;1.35;;;19.90;39.90;;;;;;4955710;28;20476;-61
2022/05/03 04:45:34;;;;;;;1.30;1.20;;;20.00;39.90;;;;;;4944159;28;20046;-61
2022/05/03 04:48:00;;;;;;;1.15;1.10;;;20.00;40.00;;;;;;4942855;28;20039;-61
2022/05/03 04:50:25;;;;;;;1.10;1.00;;;20.00;40.00;;;;;;4944107;28;20693;-61
2022/05/03 04:52:51;;;;;;;1.25;1.10;;;20.00;40.00;;;;;;4943546;28;20054;-61
2022/05/03 04:55:17;;;;;;;2.45;1.40;;;20.00;40.00;;;;;;4944788;28;20047;-61
2022/05/03 04:57:42;;;;;;;0.93;0.93;;;20.00;40.00;;;;;;4944504;28;20042;-61
2022/05/03 05:00:08;;;;;;;0.93;0.90;;;20.00;40.00;;;;;;4946972;28;20186;-61
2022/05/03 05:02:34;;;;;;;2.15;0.90;;;20.00;40.00;;;;;;4946065;28;20039;-61
2022/05/03 05:04:59;;;;;;;1.13;1.02;;;20.00;40.00;;;;;;4949128;28;20538;-61
2022/05/03 05:07:25;;;;;;;1.17;0.80;;;20.00;40.00;;;;;;4948044;28;20035;-61
2022/05/03 05:12:35;;;;;;;2.10;0.80;;;20.00;40.20;;;;;;4946451;29;20395;-62
2022/05/03 05:15:01;;;;;;;1.77;1.00;;;20.00;40.30;;;;;;4947060;28;20045;-61
2022/05/03 05:17:26;;;;;;;0.70;0.70;;;20.00;40.40;;;;;;4947000;28;20406;-61
2022/05/03 05:19:52;;;;;;;0.63;0.60;;;20.00;41.10;;;;;;4946548;29;20039;-61
2022/05/03 05:22:18;;;;;;;1.13;0.70;;;20.10;40.40;;;;;;4943738;29;20043;-61
2022/05/03 05:24:43;;;;;;;1.15;0.80;;;20.00;40.40;;;;;;4945736;29;20032;-60
2022/05/03 05:27:09;;;;;;;1.55;1.00;;;20.10;40.50;;;;;;4945227;28;20578;-61
2022/05/03 05:29:34;;;;;;;1.17;0.80;;;20.00;40.50;;;;;;4946956;28;20031;-61
2022/05/03 05:32:00;;;;;;;3.17;1.00;;;20.10;40.50;;;;;;4946529;28;20439;-60
2022/05/03 05:34:25;;;;;;;1.85;0.90;;;20.10;40.60;;;;;;4947600;28;20062;-60
2022/05/03 05:36:51;;;;;;;2.42;1.00;;;20.10;40.80;;;;;;4945821;29;20062;-62
2022/05/03 05:39:16;;;;;;;1.88;0.90;;;20.10;41.10;;;;;;4946033;28;20042;-60
2022/05/03 05:41:42;;;;;;;1.10;1.00;;;20.10;41.30;;;;;;4947550;28;20130;-61
2022/05/03 05:44:10;;;;;;;1.27;1.08;;;20.10;41.60;;;;;;4945882;28;20146;-62
2022/05/03 05:46:35;;;;;;;2.55;0.93;;;20.20;41.70;;;;;;4948636;28;20047;-60
2022/05/03 05:49:01;;;;;;;2.35;1.10;;;20.20;41.80;;;;;;4947016;28;20043;-60
2022/05/03 05:51:27;;;;;;;1.05;1.00;;;20.10;41.80;;;;;;4945543;28;20047;-62
2022/05/03 05:53:52;;;;;;;3.75;1.80;;;20.20;41.90;;;;;;4946403;29;20043;-59
2022/05/03 05:56:18;;;;;;;2.47;1.00;;;20.20;41.90;;;;;;4955387;28;20059;-61
2022/05/03 05:58:43;;;;;;;2.00;1.73;;;20.20;41.90;;;;;;4945424;28;20067;-60
2022/05/03 06:01:09;;;;;;;3.88;1.20;;;20.20;41.90;;;;;;4946212;28;20167;-60
2022/05/03 06:03:34;;;;;;;2.30;1.40;;;20.20;42.00;;;;;;4945609;28;20122;-61
2022/05/03 06:06:00;;;;;;;2.38;1.40;;;20.20;42.10;;;;;;4945259;28;20499;-58
2022/05/03 06:08:26;;;;;;;2.38;2.17;;;20.20;42.10;;;;;;4943627;28;20039;-59
2022/05/03 06:10:52;;;;;;;2.88;2.30;;;20.20;42.20;;;;;;4943503;28;20043;-59
2022/05/03 06:13:19;;;;;;;2.83;1.95;;;20.20;42.20;;;;;;4944424;29;20047;-61
2022/05/03 06:15:44;;;;;;;1.50;1.40;;;20.20;42.40;;;;;;4945548;29;20093;-59
2022/05/03 06:18:10;;;;;;;2.05;1.73;;;20.20;42.60;;;;;;4959230;28;20142;-60
2022/05/03 06:20:36;;;;;;;2.03;1.60;;;20.20;42.70;;;;;;4945812;28;20161;-61
2022/05/03 06:23:03;;;;;;;2.97;2.00;;;20.30;42.80;;;;;;4944575;28;20634;-60
2022/05/03 06:25:29;;;;;;;3.15;2.00;;;20.30;43.00;;;;;;4945047;29;20074;-61
2022/05/03 06:27:54;;;;;;;2.90;2.00;;;20.30;43.10;;;;;;4946093;28;20131;-60
2022/05/03 06:30:20;;;;;;;5.05;2.10;;;20.30;43.20;;;;;;4945705;29;20051;-59
2022/05/03 06:32:46;;;;;;;3.05;1.98;;;20.30;43.20;;;;;;4923021;28;20054;-61
2022/05/03 06:35:12;;;;;;;2.83;2.30;;;20.30;43.30;;;;;;4925802;29;20500;-59
2022/05/03 06:37:41;;;;;;;3.72;2.40;;;20.40;43.60;;;;;;4950217;28;20399;-61
2022/05/03 06:40:08;;;;;;;4.38;2.78;;;20.40;43.60;;;;;;4944579;29;20488;-64
2022/05/03 06:42:38;;;;;;;2.60;2.22;;;20.40;43.70;;;;;;4944094;29;20472;-60
2022/05/03 06:45:05;;;;;;;3.00;2.33;;;20.40;43.70;;;;;;4942230;29;20062;-61
2022/05/03 06:47:31;;;;;;;3.47;2.40;;;20.40;43.80;;;;;;4947198;29;20039;-61
2022/05/03 06:49:57;;;;;;;4.38;2.78;;;20.40;43.70;;;;;;4960033;28;20495;-60
2022/05/03 06:52:23;;;;;;;7.45;3.22;;;20.40;43.70;;;;;;4946268;29;20043;-61
2022/05/03 06:54:49;;;;;;;3.55;3.22;;;20.40;43.70;;;;;;4945502;29;20118;-61
2022/05/03 06:57:15;;;;;;;13.75;3.40;;;20.40;43.70;;;;;;4945567;28;20483;-61
2022/05/03 06:59:40;;;;;;;5.00;3.50;;;20.40;43.80;;;;;;4942755;28;20568;-60
2022/05/03 07:02:06;;;;;;;4.75;3.33;;;20.40;43.90;;;;;;4946391;28;20047;-61
2022/05/03 07:04:31;;;;;;;4.80;3.88;;;20.30;43.90;;;;;;4944328;29;20045;-60
2022/05/03 07:06:57;;;;;;;4.40;3.58;;;20.30;44.10;;;;;;4946035;28;20503;-60
2022/05/03 07:09:22;;;;;;;4.68;3.92;;;20.30;44.10;;;;;;4945152;28;20436;-60
2022/05/03 07:11:48;;;;;;;4.30;3.90;;;20.40;44.10;;;;;;4945587;28;20492;-60
2022/05/03 07:14:15;;;;;;;5.85;4.57;;;20.40;44.20;;;;;;4945174;28;20388;-60
2022/05/03 07:16:41;;;;;;;4.40;4.00;;;20.40;44.20;;;;;;4943233;29;20134;-61
2022/05/03 07:24:55;;;;;;;5.07;4.50;;;20.40;44.30;;;;;;4923735;29;20107;-60
2022/05/03 07:27:21;;;;;;;5.25;4.82;;;20.40;44.30;;;;;;4921251;29;20052;-61
2022/05/03 07:29:46;;;;;;;5.70;4.85;;;20.40;44.40;;;;;;4919469;29;20062;-60
2022/05/03 07:32:12;;;;;;;5.38;4.88;;;20.30;44.40;;;;;;4942588;28;20074;-61
2022/05/03 07:34:37;;;;;;;7.72;5.25;;;20.40;44.40;;;;;;4943863;28;20126;-61
2022/05/03 07:37:03;;;;;;;6.55;4.97;;;20.40;44.40;;;;;;4946955;29;20031;-61
2022/05/03 07:39:30;;;;;;;6.05;4.95;;;20.40;44.40;;;;;;4944039;28;20047;-60
2022/05/03 07:41:57;;;;;;;5.72;5.10;;;20.40;44.50;;;;;;4944545;29;20852;-60
2022/05/03 07:44:23;;;;;;;5.57;5.03;;;20.40;44.50;;;;;;4944792;29;20032;-60
2022/05/03 07:46:49;;;;;;;8.25;6.00;;;20.40;44.60;;;;;;4944770;28;20414;-61
2022/05/03 07:49:14;;;;;;;6.63;6.00;;;20.40;44.60;;;;;;4938118;29;20043;-61
2022/05/03 07:51:43;;;;;;;6.88;6.18;;;20.40;44.70;;;;;;4946084;28;20141;-61
2022/05/03 07:54:09;;;;;;;7.40;6.25;;;20.40;44.80;;;;;;4945797;29;20456;-60
2022/05/03 07:56:35;;;;;;;8.85;7.43;;;20.30;44.80;;;;;;4944258;28;20047;-62
2022/05/03 07:59:02;;;;;;;8.00;7.20;;;20.40;44.90;;;;;;4946435;28;20372;-61
2022/05/03 08:01:28;;;;;;;7.68;6.88;;;20.40;44.90;;;;;;4944281;29;20043;-61
2022/05/03 08:03:54;;;;;;;8.00;7.20;;;20.40;44.90;;;;;;4943905;28;20065;-60
2022/05/03 08:06:23;;;;;;;8.82;7.65;;;20.40;45.00;;;;;;4944703;28;20105;-61
2022/05/03 08:08:48;;;;;;;8.90;7.43;;;20.30;45.00;;;;;;4945920;29;20456;-62
2022/05/03 08:11:14;;;;;;;8.55;7.32;;;20.30;45.00;;;;;;4939516;29;20043;-60
2022/05/03 08:13:40;;;;;;;9.75;7.95;;;20.40;45.00;;;;;;4944272;29;20427;-60
2022/05/03 08:16:17;;;;;;;9.63;8.15;;;20.30;45.00;;;;;;4945038;28;20589;-62
2022/05/03 08:18:42;;;;;;;10.48;8.38;;;20.30;45.10;;;;;;4946316;29;20043;-61
2022/05/03 08:21:08;;;;;;;11.80;8.27;;;20.40;45.30;;;;;;4945496;28;20041;-61
2022/05/03 08:23:35;;;;;;;11.18;8.68;;;20.40;45.30;;;;;;4945894;28;20539;-61
2022/05/03 08:26:00;;;;;;;10.13;8.23;;;20.40;45.40;;;;;;4945303;28;20075;-61
2022/05/03 08:28:26;;;;;;;12.13;8.77;;;20.30;45.40;;;;;;4945807;28;20077;-60
2022/05/03 08:30:51;;;;;;;11.48;9.23;;;20.40;45.40;;;;;;4944679;28;20403;-62
2022/05/03 08:33:17;;;;;;;12.30;8.55;;;20.30;45.40;;;;;;4942822;29;20902;-61
2022/05/03 08:35:43;;;;;;;10.98;8.60;;;20.40;45.60;;;;;;4958728;28;20038;-61
2022/05/03 08:43:39;;;;;;;11.02;9.23;;;20.40;45.60;;;;;;4943653;29;20077;-61
2022/05/03 08:46:06;;;;;;;12.43;9.68;;;20.40;45.70;;;;;;4944987;28;20028;-62
2022/05/03 08:48:35;;;;;;;15.35;9.93;;;20.40;45.80;;;;;;4945773;29;20047;-60
2022/05/03 08:51:00;;;;;;;12.98;9.95;;;20.30;45.80;;;;;;4944318;29;20039;-63
2022/05/03 08:53:27;;;;;;;12.70;9.50;;;20.30;45.80;;;;;;4944122;29;20499;-61
2022/05/03 08:55:53;;;;;;;13.85;9.13;;;20.40;45.90;;;;;;4945119;28;20035;-60
2022/05/03 08:58:19;;;;;;;12.18;9.57;;;20.40;45.90;;;;;;4944914;29;20475;-60
2022/05/03 09:00:45;;;;;;;13.55;9.32;;;20.40;45.90;;;;;;4945156;28;20114;-61
2022/05/03 09:03:12;;;;;;;12.32;8.38;;;20.40;45.90;;;;;;4942886;29;20704;-63
2022/05/03 09:05:39;;;;;;;12.45;8.77;;;20.30;45.90;;;;;;4943917;28;20066;-61
2022/05/03 09:08:08;;;;;;;13.90;9.13;;;20.30;45.90;;;;;;4943047;28;20055;-60
2022/05/03 09:10:36;;;;;;;16.00;8.70;;;20.40;46.00;;;;;;4944145;29;20039;-61
2022/05/03 09:13:17;;;;;;;11.57;8.68;;;20.30;46.00;;;;;;4941842;28;20097;-61
2022/05/03 09:15:42;;;;;;;9.83;7.70;;;20.40;46.00;;;;;;4944575;28;20039;-61
2022/05/03 09:18:18;;;;;;;11.40;8.10;;;20.30;45.90;;;;;;4942684;29;20306;-62
2022/05/03 09:26:24;;;;;;;11.02;7.95;;;20.40;46.00;;;;;;4944941;29;20058;-62
2022/05/03 09:29:01;;;;;;;11.32;8.13;;;20.40;46.00;;;;;;4942954;29;20047;-62
2022/05/03 09:31:28;;;;;;;12.57;7.60;;;20.40;46.10;;;;;;4943115;29;20134;-59
2022/05/03 09:33:54;;;;;;;9.77;7.63;;;20.40;46.10;;;;;;4941071;29;20448;-62
2022/05/03 09:36:20;;;;;;;11.10;7.68;;;20.40;46.10;;;;;;4945206;28;20583;-60
2022/05/03 09:38:50;;;;;;;9.82;7.53;;;20.40;46.10;;;;;;4943984;29;20064;-60
2022/05/03 09:41:16;;;;;;;8.33;6.90;;;20.40;46.10;;;;;;4945920;29;20039;-60
2022/05/03 09:44:08;;;;;;;9.07;6.88;;;20.40;46.00;;;;;;4944450;29;20496;-60
2022/05/03 09:46:53;;;;;;;10.32;7.18;;;20.40;46.10;;;;;;4946614;28;20420;-61
2022/05/03 09:49:32;;;;;;;10.50;7.32;;;20.40;46.20;;;;;;4942037;28;20042;-61
2022/05/03 09:51:58;;;;;;;9.82;7.05;;;20.40;46.10;;;;;;4946210;28;20062;-60
2022/05/03 09:54:23;;;;;;;9.40;6.82;;;20.40;46.10;;;;;;4946657;28;20518;-61
2022/05/03 09:56:51;;;;;;;8.95;6.95;;;20.30;46.10;;;;;;4948381;28;20138;-61
2022/05/03 09:59:18;;;;;;;8.25;6.50;;;20.40;46.20;;;;;;4946312;28;20174;-60
2022/05/03 10:01:44;;;;;;;7.97;5.93;;;20.40;46.20;;;;;;4946961;28;20035;-61
2022/05/03 10:04:10;;;;;;;10.27;6.25;;;20.30;46.20;;;;;;4947599;28;20420;-60
2022/05/03 10:06:36;;;;;;;8.43;5.90;;;20.30;46.10;;;;;;4948239;28;20043;-60
2022/05/03 10:09:01;;;;;;;8.75;6.10;;;20.30;46.10;;;;;;4947397;28;20039;-61
2022/05/03 10:11:27;;;;;;;9.80;5.60;;;20.40;46.20;;;;;;4946859;28;20043;-61
2022/05/03 10:13:53;;;;;;;7.80;5.50;;;20.30;46.10;;;;;;4946824;28;20417;-60
2022/05/03 10:21:56;;;;;;;7.80;5.10;;;20.30;46.10;;;;;;4947675;29;20051;-59
2022/05/03 10:24:23;;;;;;;7.78;4.85;;;20.40;46.20;;;;;;4946440;29;20046;-61
2022/05/03 10:26:52;;;;;;;6.50;4.90;;;20.40;46.20;;;;;;4947271;29;20087;-59
2022/05/03 10:29:18;;;;;;;7.10;4.57;;;20.40;46.10;;;;;;4946917;28;20050;-61
2022/05/03 10:32:07;;;;;;;7.10;4.75;;;20.40;46.20;;;;;;4946661;29;20047;-61
2022/05/03 10:34:44;;;;;;;7.88;4.30;;;20.40;46.20;;;;;;4939130;28;20265;-59
2022/05/03 10:37:12;;;;;;;12.70;4.28;;;20.30;46.20;;;;;;4948028;29;20039;-59
2022/05/03 10:40:12;;;;;;;9.10;4.22;;;20.30;46.50;;;;;;4946462;28;20045;-59
2022/05/03 10:42:38;;;;;;;9.18;4.22;;;20.40;46.80;;;;;;4931301;29;20058;-61
2022/05/03 10:45:13;;;;;;;6.28;4.03;;;20.40;46.70;;;;;;4943772;28;20534;-60
2022/05/03 10:47:54;;;;;;;7.60;3.97;;;20.40;46.70;;;;;;4947169;28;20195;-59
2022/05/03 10:50:27;;;;;;;6.95;4.15;;;20.40;46.80;;;;;;4946966;29;20538;-59
2022/05/03 10:52:55;;;;;;;8.00;3.85;;;20.40;46.90;;;;;;4945955;28;20043;-59
2022/05/03 10:55:23;;;;;;;7.43;4.07;;;20.40;46.90;;;;;;4944717;29;20059;-62
2022/05/03 10:58:18;;;;;;;8.82;4.20;;;20.40;47.10;;;;;;4944380;28;20407;-59
2022/05/03 11:01:18;;;;;;;5.63;3.70;;;20.40;47.30;;;;;;4944120;29;20176;-60
2022/05/03 11:03:57;;;;;;;8.52;4.15;;;20.40;47.30;;;;;;4946135;29;20121;-60
2022/05/03 11:06:23;;;;;;;5.93;3.90;;;20.40;47.20;;;;;;4945989;28;20097;-59
2022/05/03 11:09:19;;;;;;;8.55;4.00;;;20.40;47.40;;;;;;4947142;29;20047;-59
2022/05/03 11:11:43;;;;;;;7.60;3.72;;;20.40;47.50;;;;;;4946511;28;20522;-61
2022/05/03 11:14:21;;;;;;;6.43;4.13;;;20.40;47.50;;;;;;4943930;28;20043;-61
2022/05/03 11:17:08;;;;;;;5.07;3.80;;;20.40;47.50;;;;;;4945061;29;20130;-61
2022/05/03 11:19:34;;;;;;;8.77;3.97;;;20.40;47.50;;;;;;4942169;29;20031;-60
2022/05/03 11:22:00;;;;;;;7.13;3.88;;;20.40;47.30;;;;;;4945526;28;20043;-60
2022/05/03 11:24:28;;;;;;;7.70;3.85;;;20.40;47.30;;;;;;4946179;28;20035;-60
2022/05/03 11:27:05;;;;;;;8.23;3.90;;;20.40;47.20;;;;;;4945799;28;20525;-59
2022/05/03 11:30:01;;;;;;;6.82;3.90;;;20.40;47.10;;;;;;4942363;28;20043;-61
2022/05/03 11:32:47;;;;;;;7.18;3.70;;;20.40;47.00;;;;;;4940969;29;20059;-61
2022/05/03 11:35:15;;;;;;;6.68;3.70;;;20.40;47.00;;;;;;4945623;29;20061;-61
2022/05/03 11:37:49;;;;;;;6.53;3.72;;;20.40;47.00;;;;;;4946040;29;20423;-60
2022/05/03 11:40:17;;;;;;;9.32;3.75;;;20.40;47.00;;;;;;4942540;29;20117;-60
2022/05/03 11:42:44;;;;;;;4.75;3.60;;;20.40;47.00;;;;;;4945319;28;20125;-59
2022/05/03 11:45:12;;;;;;;6.20;3.47;;;20.40;46.90;;;;;;4943158;29;20085;-61
2022/05/03 11:47:43;;;;;;;6.57;3.63;;;20.40;46.90;;;;;;4944836;29;20047;-62
2022/05/03 11:50:09;;;;;;;;;;;20.40;46.80;;;;;;4945537;28;20066;-62
2022/05/03 11:58:04;;;;;;;9.55;3.90;;;20.40;46.80;;;;;;4945343;28;20488;-63
2022/05/03 12:00:42;;;;;;;8.35;4.28;;;20.40;46.80;;;;;;4945141;28;20043;-61
2022/05/03 12:03:08;;;;;;;7.05;3.80;;;20.40;46.70;;;;;;4943755;29;20043;-61
2022/05/03 12:05:36;;;;;;;5.47;3.45;;;20.40;46.60;;;;;;4944772;28;20066;-61
2022/05/03 12:08:02;;;;;;;6.45;3.83;;;20.40;46.50;;;;;;4943496;28;20496;-60
2022/05/03 12:10:34;;;;;;;9.23;3.38;;;20.40;46.50;;;;;;4944631;28;20042;-62
2022/05/03 12:13:22;;;;;;;7.68;3.72;;;20.40;46.40;;;;;;4944612;28;20038;-60
2022/05/03 12:16:06;;;;;;;7.70;3.90;;;20.40;46.30;;;;;;4942482;29;20288;-64
2022/05/03 12:18:40;;;;;;;7.35;3.50;;;20.30;46.20;;;;;;4941799;29;20047;-61
2022/05/03 12:21:12;;;;;;;5.32;3.35;;;20.30;46.20;;;;;;4944165;28;20090;-60
2022/05/03 12:23:51;;;;;;;6.28;3.72;;;20.40;46.30;;;;;;4943697;28;20384;-62
2022/05/03 12:26:18;;;;;;;6.40;2.83;;;20.40;46.20;;;;;;4943114;28;20043;-61
2022/05/03 12:28:50;;;;;;;8.02;3.97;;;20.30;46.20;;;;;;4943744;29;20582;-63
2022/05/03 12:31:16;;;;;;;6.47;3.22;;;20.40;46.20;;;;;;4944155;29;20051;-61
2022/05/03 12:33:51;;;;;;;5.70;3.55;;;20.30;46.10;;;;;;4942371;28;20142;-61
2022/05/03 12:36:46;;;;;;;8.35;3.70;;;20.40;46.00;;;;;;4943118;28;20064;-63
2022/05/03 12:39:19;;;;;;;5.70;3.20;;;20.40;46.00;;;;;;4938325;28;20440;-59
2022/05/03 12:41:54;;;;;;;4.43;2.88;;;20.30;46.00;;;;;;4944606;28;20039;-60
2022/05/03 12:44:21;;;;;;;6.57;3.58;;;20.40;46.00;;;;;;4944170;28;20050;-60
2022/05/03 12:46:49;;;;;;;5.18;3.20;;;20.30;45.90;;;;;;4943585;28;20038;-60
2022/05/03 12:49:15;;;;;;;5.63;3.13;;;20.40;46.00;;;;;;4942545;28;20398;-59
2022/05/03 12:51:46;;;;;;;7.43;3.28;;;20.30;45.90;;;;;;4943948;28;20049;-59
2022/05/03 12:54:12;;;;;;;5.72;3.10;;;20.30;45.80;;;;;;4945707;29;20035;-62
2022/05/03 12:59:24;;;;;;;4.47;3.20;;;20.40;45.90;;;;;;4945731;29;20098;-59
2022/05/03 13:01:50;;;;;;;5.75;2.97;;;20.30;46.60;;;;;;4945766;29;20055;-59
2022/05/03 13:04:17;;;;;;;6.55;3.33;;;20.40;45.90;;;;;;4945586;28;20043;-62
2022/05/03 13:06:43;;;;;;;6.63;3.15;;;20.30;45.60;;;;;;4944348;29;20047;-61
2022/05/03 13:09:09;;;;;;;5.78;3.30;;;20.30;45.60;;;;;;4943494;28;20054;-59
2022/05/03 13:11:35;;;;;;;5.22;3.17;;;20.40;45.60;;;;;;4945817;28;20261;-59
2022/05/03 13:14:01;;;;;;;5.25;2.60;;;20.40;45.60;;;;;;4945042;28;21083;-60
2022/05/03 13:16:27;;;;;;;7.40;3.08;;;20.40;45.60;;;;;;4945007;28;20040;-59
2022/05/03 13:18:53;;;;;;;6.40;3.25;;;20.40;45.60;;;;;;4944355;28;20130;-61
2022/05/03 13:21:18;;;;;;;5.85;2.80;;;20.40;45.50;;;;;;4945294;28;20134;-61
2022/05/03 13:23:44;;;;;;;6.93;3.13;;;20.30;45.40;;;;;;4947387;29;20074;-60
2022/05/03 13:26:10;;;;;;;6.85;2.85;;;20.40;45.40;;;;;;4949560;28;20054;-60
2022/05/03 13:28:36;;;;;;;11.00;3.00;;;20.40;45.40;;;;;;4948652;29;20043;-61
2022/05/03 13:31:01;;;;;;;4.53;2.80;;;20.40;45.70;;;;;;4949305;28;20106;-60
2022/05/03 13:33:27;;;;;;;7.18;2.80;;;20.40;45.50;;;;;;4944537;28;20200;-59
2022/05/03 13:41:21;;;;;;;6.60;2.53;;;20.40;45.50;;;;;;4948635;29;20538;-59
2022/05/03 13:43:48;;;;;;;7.85;3.03;;;20.40;45.50;;;;;;4948126;28;20125;-60
2022/05/03 13:46:14;;;;;;;3.25;2.63;;;20.40;45.60;;;;;;4947011;29;20087;-61